sensor_id;sensor_type;location;lat;lon;timestamp;P1;durP1;ratioP1;P2;durP2;ratioP2
75152;SDS011;63734;45.218;36.708;2023-03-01T00:01:49;6.75;;;4.50;;
75152;SDS011;63734;45.218;36.708;2023-03-01T00:04:15;12.23;;;6.70;;
75152;SDS011;63734;45.218;36.708;2023-03-01T00:06:42;7.13;;;4.38;;
75152;SDS011;63734;45.218;36.708;2023-03-01T00:09:11;14.15;;;6.38;;
75152;SDS011;63734;45.218;36.708;2023-03-01T00:11:38;10.30;;;5.22;;
75152;SDS011;63734;45.218;36.708;2023-03-01T00:14:04;10.48;;;5.00;;
75152;SDS011;63734;45.218;36.708;2023-03-01T00:16:35;9.93;;;4.50;;
75152;SDS011;63734;45.218;36.708;2023-03-01T00:19:07;9.07;;;4.28;;
75152;SDS011;63734;45.218;36.708;2023-03-01T00:21:35;10.15;;;4.75;;
75152;SDS011;63734;45.218;36.708;2023-03-01T00:24:01;13.98;;;6.03;;
75152;SDS011;63734;45.218;36.708;2023-03-01T00:26:27;12.63;;;6.05;;
75152;SDS011;63734;45.218;36.708;2023-03-01T00:28:53;10.10;;;4.72;;
75152;SDS011;63734;45.218;36.708;2023-03-01T00:31:21;9.10;;;5.13;;
75152;SDS011;63734;45.218;36.708;2023-03-01T00:33:51;13.90;;;6.85;;
75152;SDS011;63734;45.218;36.708;2023-03-01T00:36:19;13.65;;;7.28;;
75152;SDS011;63734;45.218;36.708;2023-03-01T00:38:45;14.55;;;5.68;;
75152;SDS011;63734;45.218;36.708;2023-03-01T00:41:12;11.55;;;5.60;;
75152;SDS011;63734;45.218;36.708;2023-03-01T00:43:40;12.75;;;6.07;;
75152;SDS011;63734;45.218;36.708;2023-03-01T00:46:08;10.13;;;5.32;;
75152;SDS011;63734;45.218;36.708;2023-03-01T00:48:36;7.82;;;4.40;;
75152;SDS011;63734;45.218;36.708;2023-03-01T00:51:07;10.77;;;5.63;;
75152;SDS011;63734;45.218;36.708;2023-03-01T00:53:38;12.10;;;6.45;;
75152;SDS011;63734;45.218;36.708;2023-03-01T00:56:05;9.43;;;4.90;;
75152;SDS011;63734;45.218;36.708;2023-03-01T00:58:33;13.00;;;5.18;;
75152;SDS011;63734;45.218;36.708;2023-03-01T01:01:00;10.35;;;5.53;;
75152;SDS011;63734;45.218;36.708;2023-03-01T01:03:26;10.95;;;6.00;;
75152;SDS011;63734;45.218;36.708;2023-03-01T01:05:52;10.93;;;5.35;;
75152;SDS011;63734;45.218;36.708;2023-03-01T01:08:22;8.77;;;4.68;;
75152;SDS011;63734;45.218;36.708;2023-03-01T01:10:48;10.15;;;4.95;;
75152;SDS011;63734;45.218;36.708;2023-03-01T01:13:14;13.82;;;6.55;;
75152;SDS011;63734;45.218;36.708;2023-03-01T01:15:40;8.98;;;4.30;;
75152;SDS011;63734;45.218;36.708;2023-03-01T01:18:06;11.88;;;5.32;;
75152;SDS011;63734;45.218;36.708;2023-03-01T01:20:32;8.18;;;4.93;;
75152;SDS011;63734;45.218;36.708;2023-03-01T01:22:58;11.15;;;6.05;;
75152;SDS011;63734;45.218;36.708;2023-03-01T01:25:24;9.35;;;4.10;;
75152;SDS011;63734;45.218;36.708;2023-03-01T01:27:51;10.63;;;5.80;;
75152;SDS011;63734;45.218;36.708;2023-03-01T01:30:17;10.05;;;5.13;;
75152;SDS011;63734;45.218;36.708;2023-03-01T01:32:43;7.65;;;4.53;;
75152;SDS011;63734;45.218;36.708;2023-03-01T01:35:09;10.63;;;5.78;;
75152;SDS011;63734;45.218;36.708;2023-03-01T01:37:35;11.93;;;5.35;;
75152;SDS011;63734;45.218;36.708;2023-03-01T01:40:01;7.55;;;4.43;;
75152;SDS011;63734;45.218;36.708;2023-03-01T01:42:31;13.07;;;6.88;;
75152;SDS011;63734;45.218;36.708;2023-03-01T01:48:06;10.95;;;4.25;;
75152;SDS011;63734;45.218;36.708;2023-03-01T01:50:38;14.48;;;6.15;;
75152;SDS011;63734;45.218;36.708;2023-03-01T01:53:07;13.63;;;6.72;;
75152;SDS011;63734;45.218;36.708;2023-03-01T01:55:44;9.82;;;4.50;;
75152;SDS011;63734;45.218;36.708;2023-03-01T01:58:13;7.80;;;4.68;;
75152;SDS011;63734;45.218;36.708;2023-03-01T02:00:42;10.65;;;5.65;;
75152;SDS011;63734;45.218;36.708;2023-03-01T02:03:10;11.48;;;5.90;;
75152;SDS011;63734;45.218;36.708;2023-03-01T02:08:29;8.70;;;5.22;;
75152;SDS011;63734;45.218;36.708;2023-03-01T02:10:58;12.95;;;6.20;;
75152;SDS011;63734;45.218;36.708;2023-03-01T02:13:26;13.80;;;6.60;;
75152;SDS011;63734;45.218;36.708;2023-03-01T02:15:53;13.60;;;6.57;;
75152;SDS011;63734;45.218;36.708;2023-03-01T02:18:20;13.65;;;6.57;;
75152;SDS011;63734;45.218;36.708;2023-03-01T02:20:54;11.63;;;5.45;;
75152;SDS011;63734;45.218;36.708;2023-03-01T02:23:22;7.07;;;4.82;;
75152;SDS011;63734;45.218;36.708;2023-03-01T02:28:40;13.48;;;6.72;;
75152;SDS011;63734;45.218;36.708;2023-03-01T02:31:08;7.05;;;4.22;;
75152;SDS011;63734;45.218;36.708;2023-03-01T02:33:55;12.00;;;6.10;;
75152;SDS011;63734;45.218;36.708;2023-03-01T02:36:23;11.32;;;5.10;;
75152;SDS011;63734;45.218;36.708;2023-03-01T02:38:56;8.60;;;5.30;;
75152;SDS011;63734;45.218;36.708;2023-03-01T02:41:24;7.53;;;4.25;;
75152;SDS011;63734;45.218;36.708;2023-03-01T02:43:53;9.90;;;4.65;;
75152;SDS011;63734;45.218;36.708;2023-03-01T02:46:21;13.95;;;6.85;;
75152;SDS011;63734;45.218;36.708;2023-03-01T02:48:51;6.85;;;3.00;;
75152;SDS011;63734;45.218;36.708;2023-03-01T02:54:17;7.18;;;3.75;;
75152;SDS011;63734;45.218;36.708;2023-03-01T02:56:47;7.00;;;4.20;;
75152;SDS011;63734;45.218;36.708;2023-03-01T02:59:16;9.55;;;4.63;;
75152;SDS011;63734;45.218;36.708;2023-03-01T03:01:45;8.25;;;4.13;;
75152;SDS011;63734;45.218;36.708;2023-03-01T03:04:13;13.18;;;7.43;;
75152;SDS011;63734;45.218;36.708;2023-03-01T03:06:46;9.15;;;5.03;;
75152;SDS011;63734;45.218;36.708;2023-03-01T03:09:14;7.78;;;4.50;;
75152;SDS011;63734;45.218;36.708;2023-03-01T03:11:40;13.00;;;6.22;;
75152;SDS011;63734;45.218;36.708;2023-03-01T03:14:09;6.00;;;4.05;;
75152;SDS011;63734;45.218;36.708;2023-03-01T03:16:43;9.20;;;4.97;;
75152;SDS011;63734;45.218;36.708;2023-03-01T03:19:11;11.90;;;6.43;;
75152;SDS011;63734;45.218;36.708;2023-03-01T03:21:38;12.93;;;5.25;;
75152;SDS011;63734;45.218;36.708;2023-03-01T03:24:04;12.73;;;5.07;;
75152;SDS011;63734;45.218;36.708;2023-03-01T03:26:30;9.07;;;4.18;;
75152;SDS011;63734;45.218;36.708;2023-03-01T03:28:57;11.27;;;6.25;;
75152;SDS011;63734;45.218;36.708;2023-03-01T03:31:23;9.35;;;6.63;;
75152;SDS011;63734;45.218;36.708;2023-03-01T03:33:50;11.93;;;6.63;;
75152;SDS011;63734;45.218;36.708;2023-03-01T03:36:20;6.97;;;3.83;;
75152;SDS011;63734;45.218;36.708;2023-03-01T03:38:48;16.33;;;7.65;;
75152;SDS011;63734;45.218;36.708;2023-03-01T03:41:14;7.80;;;4.07;;
75152;SDS011;63734;45.218;36.708;2023-03-01T03:43:41;11.00;;;5.00;;
75152;SDS011;63734;45.218;36.708;2023-03-01T03:46:10;8.82;;;4.38;;
75152;SDS011;63734;45.218;36.708;2023-03-01T03:48:38;7.97;;;4.85;;
75152;SDS011;63734;45.218;36.708;2023-03-01T03:51:06;14.85;;;7.20;;
75152;SDS011;63734;45.218;36.708;2023-03-01T03:53:34;12.68;;;7.68;;
75152;SDS011;63734;45.218;36.708;2023-03-01T03:56:00;10.23;;;5.72;;
75152;SDS011;63734;45.218;36.708;2023-03-01T03:58:26;9.73;;;5.45;;
75152;SDS011;63734;45.218;36.708;2023-03-01T04:00:54;9.75;;;5.60;;
75152;SDS011;63734;45.218;36.708;2023-03-01T04:03:22;9.88;;;5.88;;
75152;SDS011;63734;45.218;36.708;2023-03-01T04:05:49;11.15;;;4.95;;
75152;SDS011;63734;45.218;36.708;2023-03-01T04:08:20;13.13;;;7.13;;
75152;SDS011;63734;45.218;36.708;2023-03-01T04:10:48;17.13;;;7.75;;
75152;SDS011;63734;45.218;36.708;2023-03-01T04:13:16;12.88;;;6.65;;
75152;SDS011;63734;45.218;36.708;2023-03-01T04:15:45;15.23;;;7.47;;
75152;SDS011;63734;45.218;36.708;2023-03-01T04:18:15;11.05;;;6.10;;
75152;SDS011;63734;45.218;36.708;2023-03-01T04:20:42;16.95;;;7.32;;
75152;SDS011;63734;45.218;36.708;2023-03-01T04:23:14;17.45;;;7.82;;
75152;SDS011;63734;45.218;36.708;2023-03-01T04:28:26;18.67;;;8.52;;
75152;SDS011;63734;45.218;36.708;2023-03-01T04:30:56;15.27;;;7.73;;
75152;SDS011;63734;45.218;36.708;2023-03-01T04:33:23;17.67;;;8.43;;
75152;SDS011;63734;45.218;36.708;2023-03-01T04:35:50;14.15;;;7.35;;
75152;SDS011;63734;45.218;36.708;2023-03-01T04:38:17;17.63;;;8.13;;
75152;SDS011;63734;45.218;36.708;2023-03-01T04:40:44;16.27;;;8.05;;
75152;SDS011;63734;45.218;36.708;2023-03-01T04:43:11;17.42;;;7.28;;
75152;SDS011;63734;45.218;36.708;2023-03-01T04:45:39;22.13;;;8.88;;
75152;SDS011;63734;45.218;36.708;2023-03-01T04:48:05;21.15;;;8.85;;
75152;SDS011;63734;45.218;36.708;2023-03-01T04:50:32;17.10;;;7.80;;
75152;SDS011;63734;45.218;36.708;2023-03-01T04:52:58;16.15;;;7.40;;
75152;SDS011;63734;45.218;36.708;2023-03-01T04:55:25;15.13;;;6.70;;
75152;SDS011;63734;45.218;36.708;2023-03-01T04:57:52;15.35;;;7.38;;
75152;SDS011;63734;45.218;36.708;2023-03-01T05:00:19;12.77;;;5.82;;
75152;SDS011;63734;45.218;36.708;2023-03-01T05:02:46;11.50;;;5.90;;
75152;SDS011;63734;45.218;36.708;2023-03-01T05:05:14;23.95;;;8.05;;
75152;SDS011;63734;45.218;36.708;2023-03-01T05:07:40;10.98;;;6.38;;
75152;SDS011;63734;45.218;36.708;2023-03-01T05:10:07;13.07;;;6.18;;
75152;SDS011;63734;45.218;36.708;2023-03-01T05:12:33;21.33;;;7.57;;
75152;SDS011;63734;45.218;36.708;2023-03-01T05:14:59;15.15;;;6.50;;
75152;SDS011;63734;45.218;36.708;2023-03-01T05:17:25;9.43;;;4.10;;
75152;SDS011;63734;45.218;36.708;2023-03-01T05:19:50;15.48;;;5.68;;
75152;SDS011;63734;45.218;36.708;2023-03-01T05:22:16;16.65;;;7.18;;
75152;SDS011;63734;45.218;36.708;2023-03-01T05:24:42;13.45;;;5.93;;
75152;SDS011;63734;45.218;36.708;2023-03-01T05:27:08;12.27;;;5.72;;
75152;SDS011;63734;45.218;36.708;2023-03-01T05:29:34;16.10;;;7.53;;
75152;SDS011;63734;45.218;36.708;2023-03-01T05:32:00;9.52;;;5.38;;
75152;SDS011;63734;45.218;36.708;2023-03-01T05:34:29;11.68;;;5.88;;
75152;SDS011;63734;45.218;36.708;2023-03-01T05:36:57;12.73;;;6.43;;
75152;SDS011;63734;45.218;36.708;2023-03-01T05:39:24;12.35;;;6.45;;
75152;SDS011;63734;45.218;36.708;2023-03-01T05:41:52;11.90;;;5.40;;
75152;SDS011;63734;45.218;36.708;2023-03-01T05:44:19;10.23;;;5.20;;
75152;SDS011;63734;45.218;36.708;2023-03-01T05:46:46;8.68;;;4.93;;
75152;SDS011;63734;45.218;36.708;2023-03-01T05:49:12;8.65;;;5.10;;
75152;SDS011;63734;45.218;36.708;2023-03-01T05:51:40;15.85;;;7.53;;
75152;SDS011;63734;45.218;36.708;2023-03-01T05:54:07;17.65;;;6.93;;
75152;SDS011;63734;45.218;36.708;2023-03-01T05:56:33;12.00;;;6.35;;
75152;SDS011;63734;45.218;36.708;2023-03-01T05:59:00;8.02;;;4.90;;
75152;SDS011;63734;45.218;36.708;2023-03-01T06:01:27;17.48;;;8.50;;
75152;SDS011;63734;45.218;36.708;2023-03-01T06:03:53;13.35;;;7.38;;
75152;SDS011;63734;45.218;36.708;2023-03-01T06:06:19;13.60;;;7.78;;
75152;SDS011;63734;45.218;36.708;2023-03-01T06:08:45;11.55;;;5.88;;
75152;SDS011;63734;45.218;36.708;2023-03-01T06:11:11;15.48;;;6.50;;
75152;SDS011;63734;45.218;36.708;2023-03-01T06:13:37;13.77;;;6.68;;
75152;SDS011;63734;45.218;36.708;2023-03-01T06:16:06;17.02;;;6.38;;
75152;SDS011;63734;45.218;36.708;2023-03-01T06:18:32;10.57;;;5.55;;
75152;SDS011;63734;45.218;36.708;2023-03-01T06:20:58;17.05;;;8.43;;
75152;SDS011;63734;45.218;36.708;2023-03-01T06:23:24;10.43;;;5.45;;
75152;SDS011;63734;45.218;36.708;2023-03-01T06:25:50;18.25;;;8.68;;
75152;SDS011;63734;45.218;36.708;2023-03-01T06:28:17;14.73;;;6.93;;
75152;SDS011;63734;45.218;36.708;2023-03-01T06:30:43;8.52;;;4.90;;
75152;SDS011;63734;45.218;36.708;2023-03-01T06:33:09;12.30;;;6.57;;
75152;SDS011;63734;45.218;36.708;2023-03-01T06:35:35;12.38;;;6.15;;
75152;SDS011;63734;45.218;36.708;2023-03-01T06:38:02;13.38;;;5.78;;
75152;SDS011;63734;45.218;36.708;2023-03-01T06:40:28;16.80;;;5.68;;
75152;SDS011;63734;45.218;36.708;2023-03-01T06:42:56;11.82;;;5.50;;
75152;SDS011;63734;45.218;36.708;2023-03-01T06:45:23;11.13;;;5.45;;
75152;SDS011;63734;45.218;36.708;2023-03-01T06:47:49;16.17;;;7.28;;
75152;SDS011;63734;45.218;36.708;2023-03-01T06:50:16;13.90;;;6.13;;
75152;SDS011;63734;45.218;36.708;2023-03-01T06:52:43;14.75;;;6.05;;
75152;SDS011;63734;45.218;36.708;2023-03-01T06:55:10;18.33;;;8.35;;
75152;SDS011;63734;45.218;36.708;2023-03-01T06:57:37;16.08;;;6.95;;
75152;SDS011;63734;45.218;36.708;2023-03-01T07:00:03;19.85;;;9.40;;
75152;SDS011;63734;45.218;36.708;2023-03-01T07:02:31;20.17;;;9.95;;
75152;SDS011;63734;45.218;36.708;2023-03-01T07:04:57;20.90;;;9.32;;
75152;SDS011;63734;45.218;36.708;2023-03-01T07:07:23;17.77;;;7.93;;
75152;SDS011;63734;45.218;36.708;2023-03-01T07:09:49;21.15;;;9.23;;
75152;SDS011;63734;45.218;36.708;2023-03-01T07:12:15;18.98;;;8.50;;
75152;SDS011;63734;45.218;36.708;2023-03-01T07:14:43;11.00;;;5.20;;
75152;SDS011;63734;45.218;36.708;2023-03-01T07:17:09;16.55;;;6.85;;
75152;SDS011;63734;45.218;36.708;2023-03-01T07:19:35;19.58;;;10.52;;
75152;SDS011;63734;45.218;36.708;2023-03-01T07:22:01;23.58;;;10.98;;
75152;SDS011;63734;45.218;36.708;2023-03-01T07:24:29;15.50;;;6.65;;
75152;SDS011;63734;45.218;36.708;2023-03-01T07:26:55;17.38;;;7.93;;
75152;SDS011;63734;45.218;36.708;2023-03-01T07:29:21;20.20;;;9.23;;
75152;SDS011;63734;45.218;36.708;2023-03-01T07:31:47;19.08;;;8.23;;
75152;SDS011;63734;45.218;36.708;2023-03-01T07:34:13;12.40;;;6.05;;
75152;SDS011;63734;45.218;36.708;2023-03-01T07:36:39;12.50;;;6.05;;
75152;SDS011;63734;45.218;36.708;2023-03-01T07:39:09;11.80;;;5.40;;
75152;SDS011;63734;45.218;36.708;2023-03-01T07:41:36;17.60;;;8.02;;
75152;SDS011;63734;45.218;36.708;2023-03-01T07:44:01;9.43;;;5.22;;
75152;SDS011;63734;45.218;36.708;2023-03-01T07:46:27;15.45;;;7.32;;
75152;SDS011;63734;45.218;36.708;2023-03-01T07:48:53;11.52;;;4.57;;
75152;SDS011;63734;45.218;36.708;2023-03-01T07:51:19;14.93;;;7.72;;
75152;SDS011;63734;45.218;36.708;2023-03-01T07:53:46;14.38;;;6.70;;
75152;SDS011;63734;45.218;36.708;2023-03-01T07:56:13;11.00;;;4.57;;
75152;SDS011;63734;45.218;36.708;2023-03-01T07:58:43;15.32;;;5.68;;
75152;SDS011;63734;45.218;36.708;2023-03-01T08:01:10;13.65;;;5.32;;
75152;SDS011;63734;45.218;36.708;2023-03-01T08:03:43;21.42;;;6.75;;
75152;SDS011;63734;45.218;36.708;2023-03-01T08:06:10;12.65;;;5.68;;
75152;SDS011;63734;45.218;36.708;2023-03-01T08:08:37;17.27;;;6.57;;
75152;SDS011;63734;45.218;36.708;2023-03-01T08:11:04;17.70;;;8.18;;
75152;SDS011;63734;45.218;36.708;2023-03-01T08:13:31;12.68;;;5.65;;
75152;SDS011;63734;45.218;36.708;2023-03-01T08:16:05;17.02;;;8.15;;
75152;SDS011;63734;45.218;36.708;2023-03-01T08:18:33;14.27;;;5.55;;
75152;SDS011;63734;45.218;36.708;2023-03-01T08:21:03;17.10;;;8.77;;
75152;SDS011;63734;45.218;36.708;2023-03-01T08:23:30;19.40;;;8.43;;
75152;SDS011;63734;45.218;36.708;2023-03-01T08:26:08;18.15;;;7.22;;
75152;SDS011;63734;45.218;36.708;2023-03-01T08:28:45;14.05;;;7.05;;
75152;SDS011;63734;45.218;36.708;2023-03-01T08:31:16;16.52;;;7.63;;
75152;SDS011;63734;45.218;36.708;2023-03-01T08:33:44;13.13;;;7.18;;
75152;SDS011;63734;45.218;36.708;2023-03-01T08:36:16;13.85;;;6.20;;
75152;SDS011;63734;45.218;36.708;2023-03-01T08:38:43;14.05;;;6.82;;
75152;SDS011;63734;45.218;36.708;2023-03-01T08:41:09;16.15;;;7.28;;
75152;SDS011;63734;45.218;36.708;2023-03-01T08:43:35;19.00;;;7.80;;
75152;SDS011;63734;45.218;36.708;2023-03-01T08:46:01;14.15;;;6.70;;
75152;SDS011;63734;45.218;36.708;2023-03-01T08:48:27;16.60;;;7.65;;
75152;SDS011;63734;45.218;36.708;2023-03-01T08:50:54;12.15;;;5.90;;
75152;SDS011;63734;45.218;36.708;2023-03-01T08:53:20;14.75;;;7.10;;
75152;SDS011;63734;45.218;36.708;2023-03-01T08:55:46;10.45;;;5.88;;
75152;SDS011;63734;45.218;36.708;2023-03-01T08:58:12;11.65;;;6.78;;
75152;SDS011;63734;45.218;36.708;2023-03-01T09:00:38;13.13;;;7.18;;
75152;SDS011;63734;45.218;36.708;2023-03-01T09:03:05;15.15;;;7.07;;
75152;SDS011;63734;45.218;36.708;2023-03-01T09:05:32;11.05;;;6.07;;
75152;SDS011;63734;45.218;36.708;2023-03-01T09:07:59;11.80;;;6.10;;
75152;SDS011;63734;45.218;36.708;2023-03-01T09:10:25;11.65;;;5.85;;
75152;SDS011;63734;45.218;36.708;2023-03-01T09:12:51;11.45;;;5.47;;
75152;SDS011;63734;45.218;36.708;2023-03-01T09:15:17;10.98;;;6.13;;
75152;SDS011;63734;45.218;36.708;2023-03-01T09:17:43;11.95;;;5.47;;
75152;SDS011;63734;45.218;36.708;2023-03-01T09:20:09;13.05;;;6.72;;
75152;SDS011;63734;45.218;36.708;2023-03-01T09:22:35;12.73;;;5.43;;
75152;SDS011;63734;45.218;36.708;2023-03-01T09:25:01;13.88;;;6.63;;
75152;SDS011;63734;45.218;36.708;2023-03-01T09:27:28;11.63;;;6.05;;
75152;SDS011;63734;45.218;36.708;2023-03-01T09:29:53;13.18;;;4.53;;
75152;SDS011;63734;45.218;36.708;2023-03-01T09:32:21;10.48;;;4.85;;
75152;SDS011;63734;45.218;36.708;2023-03-01T09:34:47;8.43;;;4.90;;
75152;SDS011;63734;45.218;36.708;2023-03-01T09:37:32;8.88;;;4.80;;
75152;SDS011;63734;45.218;36.708;2023-03-01T09:39:59;15.68;;;7.60;;
75152;SDS011;63734;45.218;36.708;2023-03-01T09:42:25;8.98;;;4.72;;
75152;SDS011;63734;45.218;36.708;2023-03-01T09:47:29;9.82;;;5.80;;
75152;SDS011;63734;45.218;36.708;2023-03-01T09:55:31;12.25;;;7.35;;
75152;SDS011;63734;45.218;36.708;2023-03-01T10:04:22;17.60;;;7.43;;
75152;SDS011;63734;45.218;36.708;2023-03-01T10:09:40;10.80;;;6.47;;
75152;SDS011;63734;45.218;36.708;2023-03-01T10:12:18;16.23;;;8.70;;
75152;SDS011;63734;45.218;36.708;2023-03-01T10:20:21;15.13;;;8.15;;
75152;SDS011;63734;45.218;36.708;2023-03-01T10:22:52;10.25;;;5.85;;
75152;SDS011;63734;45.218;36.708;2023-03-01T10:25:31;14.38;;;6.97;;
75152;SDS011;63734;45.218;36.708;2023-03-01T10:28:18;7.97;;;4.55;;
75152;SDS011;63734;45.218;36.708;2023-03-01T10:30:51;7.40;;;4.80;;
75152;SDS011;63734;45.218;36.708;2023-03-01T10:33:27;10.55;;;5.28;;
75152;SDS011;63734;45.218;36.708;2023-03-01T10:35:57;13.75;;;6.57;;
75152;SDS011;63734;45.218;36.708;2023-03-01T10:38:25;7.28;;;4.15;;
75152;SDS011;63734;45.218;36.708;2023-03-01T10:41:13;6.50;;;4.03;;
75152;SDS011;63734;45.218;36.708;2023-03-01T10:46:33;8.52;;;4.43;;
75152;SDS011;63734;45.218;36.708;2023-03-01T10:49:07;9.13;;;4.60;;
75152;SDS011;63734;45.218;36.708;2023-03-01T10:51:55;10.48;;;5.60;;
75152;SDS011;63734;45.218;36.708;2023-03-01T10:54:22;8.30;;;5.20;;
75152;SDS011;63734;45.218;36.708;2023-03-01T10:56:57;8.00;;;4.75;;
75152;SDS011;63734;45.218;36.708;2023-03-01T10:59:31;11.85;;;6.30;;
75152;SDS011;63734;45.218;36.708;2023-03-01T11:02:03;11.10;;;4.70;;
75152;SDS011;63734;45.218;36.708;2023-03-01T11:05:13;7.25;;;4.50;;
75152;SDS011;63734;45.218;36.708;2023-03-01T11:07:50;9.00;;;4.80;;
75152;SDS011;63734;45.218;36.708;2023-03-01T11:10:22;8.95;;;4.07;;
75152;SDS011;63734;45.218;36.708;2023-03-01T11:12:53;7.63;;;4.30;;
75152;SDS011;63734;45.218;36.708;2023-03-01T11:15:30;9.55;;;4.10;;
75152;SDS011;63734;45.218;36.708;2023-03-01T11:17:57;9.48;;;5.28;;
75152;SDS011;63734;45.218;36.708;2023-03-01T11:20:31;8.43;;;5.22;;
75152;SDS011;63734;45.218;36.708;2023-03-01T11:23:03;10.73;;;5.80;;
75152;SDS011;63734;45.218;36.708;2023-03-01T11:25:43;11.73;;;5.88;;
75152;SDS011;63734;45.218;36.708;2023-03-01T11:28:15;13.88;;;4.25;;
75152;SDS011;63734;45.218;36.708;2023-03-01T11:33:58;8.70;;;5.70;;
75152;SDS011;63734;45.218;36.708;2023-03-01T11:42:01;15.73;;;6.55;;
75152;SDS011;63734;45.218;36.708;2023-03-01T11:44:37;10.85;;;6.13;;
75152;SDS011;63734;45.218;36.708;2023-03-01T11:47:17;9.48;;;5.35;;
75152;SDS011;63734;45.218;36.708;2023-03-01T11:57:41;9.88;;;5.40;;
75152;SDS011;63734;45.218;36.708;2023-03-01T12:03:59;8.40;;;4.82;;
75152;SDS011;63734;45.218;36.708;2023-03-01T12:14:05;10.45;;;3.42;;
75152;SDS011;63734;45.218;36.708;2023-03-01T12:24:51;4.88;;;3.08;;
75152;SDS011;63734;45.218;36.708;2023-03-01T12:36:19;6.13;;;2.40;;
75152;SDS011;63734;45.218;36.708;2023-03-01T12:44:48;4.80;;;3.38;;
75152;SDS011;63734;45.218;36.708;2023-03-01T12:50:11;5.95;;;2.30;;
75152;SDS011;63734;45.218;36.708;2023-03-01T12:52:45;6.28;;;3.50;;
75152;SDS011;63734;45.218;36.708;2023-03-01T12:55:37;4.35;;;2.83;;
75152;SDS011;63734;45.218;36.708;2023-03-01T13:11:33;8.10;;;3.08;;
75152;SDS011;63734;45.218;36.708;2023-03-01T13:14:43;5.90;;;2.95;;
75152;SDS011;63734;45.218;36.708;2023-03-01T13:16:50;4.97;;;3.28;;
75152;SDS011;63734;45.218;36.708;2023-03-01T13:19:27;38.75;;;3.60;;
75152;SDS011;63734;45.218;36.708;2023-03-01T13:22:01;12.57;;;3.75;;
75152;SDS011;63734;45.218;36.708;2023-03-01T13:24:57;3.17;;;2.20;;
75152;SDS011;63734;45.218;36.708;2023-03-01T13:27:38;4.38;;;2.50;;
75152;SDS011;63734;45.218;36.708;2023-03-01T13:30:12;6.63;;;3.28;;
75152;SDS011;63734;45.218;36.708;2023-03-01T13:34:00;7.93;;;3.58;;
75152;SDS011;63734;45.218;36.708;2023-03-01T13:35:55;5.07;;;3.03;;
75152;SDS011;63734;45.218;36.708;2023-03-01T13:41:24;5.30;;;2.45;;
75152;SDS011;63734;45.218;36.708;2023-03-01T13:44:22;7.78;;;3.30;;
75152;SDS011;63734;45.218;36.708;2023-03-01T13:50:19;6.53;;;2.95;;
75152;SDS011;63734;45.218;36.708;2023-03-01T13:55:23;7.05;;;3.80;;
75152;SDS011;63734;45.218;36.708;2023-03-01T13:57:57;7.47;;;3.30;;
75152;SDS011;63734;45.218;36.708;2023-03-01T14:00:25;5.18;;;3.00;;
75152;SDS011;63734;45.218;36.708;2023-03-01T14:05:40;6.05;;;3.00;;
75152;SDS011;63734;45.218;36.708;2023-03-01T14:08:18;8.65;;;3.15;;
75152;SDS011;63734;45.218;36.708;2023-03-01T14:16:20;6.25;;;3.47;;
75152;SDS011;63734;45.218;36.708;2023-03-01T14:21:41;7.85;;;3.83;;
75152;SDS011;63734;45.218;36.708;2023-03-01T14:24:18;6.90;;;3.22;;
75152;SDS011;63734;45.218;36.708;2023-03-01T14:26:47;4.72;;;3.20;;
75152;SDS011;63734;45.218;36.708;2023-03-01T14:29:35;5.57;;;2.90;;
75152;SDS011;63734;45.218;36.708;2023-03-01T14:32:10;7.85;;;4.03;;
75152;SDS011;63734;45.218;36.708;2023-03-01T14:34:44;4.85;;;3.15;;
75152;SDS011;63734;45.218;36.708;2023-03-01T14:37:20;10.07;;;4.47;;
75152;SDS011;63734;45.218;36.708;2023-03-01T14:39:47;5.68;;;3.17;;
75152;SDS011;63734;45.218;36.708;2023-03-01T14:42:35;6.45;;;3.15;;
75152;SDS011;63734;45.218;36.708;2023-03-01T14:45:02;14.18;;;3.80;;
75152;SDS011;63734;45.218;36.708;2023-03-01T14:47:31;6.32;;;2.85;;
75152;SDS011;63734;45.218;36.708;2023-03-01T14:50:08;6.95;;;3.58;;
75152;SDS011;63734;45.218;36.708;2023-03-01T14:52:55;7.55;;;4.03;;
75152;SDS011;63734;45.218;36.708;2023-03-01T14:55:25;8.95;;;3.47;;
75152;SDS011;63734;45.218;36.708;2023-03-01T14:57:56;5.25;;;3.25;;
75152;SDS011;63734;45.218;36.708;2023-03-01T15:00:24;6.13;;;3.63;;
75152;SDS011;63734;45.218;36.708;2023-03-01T15:02:53;7.45;;;4.32;;
75152;SDS011;63734;45.218;36.708;2023-03-01T15:05:30;7.78;;;3.72;;
75152;SDS011;63734;45.218;36.708;2023-03-01T15:07:57;8.23;;;3.67;;
75152;SDS011;63734;45.218;36.708;2023-03-01T15:10:27;27.05;;;4.72;;
75152;SDS011;63734;45.218;36.708;2023-03-01T15:12:55;17.48;;;4.22;;
75152;SDS011;63734;45.218;36.708;2023-03-01T15:17:54;6.13;;;3.65;;
75152;SDS011;63734;45.218;36.708;2023-03-01T15:20:24;12.80;;;4.07;;
75152;SDS011;63734;45.218;36.708;2023-03-01T15:22:53;12.13;;;5.00;;
75152;SDS011;63734;45.218;36.708;2023-03-01T15:25:27;7.53;;;3.97;;
75152;SDS011;63734;45.218;36.708;2023-03-01T15:27:55;7.43;;;4.13;;
75152;SDS011;63734;45.218;36.708;2023-03-01T15:30:23;7.35;;;4.25;;
75152;SDS011;63734;45.218;36.708;2023-03-01T15:35:49;6.75;;;3.80;;
75152;SDS011;63734;45.218;36.708;2023-03-01T15:38:36;10.10;;;4.63;;
75152;SDS011;63734;45.218;36.708;2023-03-01T15:41:26;6.65;;;3.88;;
75152;SDS011;63734;45.218;36.708;2023-03-01T15:43:57;7.65;;;4.25;;
75152;SDS011;63734;45.218;36.708;2023-03-01T15:46:26;7.90;;;4.68;;
75152;SDS011;63734;45.218;36.708;2023-03-01T15:48:57;6.82;;;3.83;;
75152;SDS011;63734;45.218;36.708;2023-03-01T15:51:30;8.23;;;4.68;;
75152;SDS011;63734;45.218;36.708;2023-03-01T15:54:02;6.53;;;4.05;;
75152;SDS011;63734;45.218;36.708;2023-03-01T15:56:41;10.40;;;5.05;;
75152;SDS011;63734;45.218;36.708;2023-03-01T15:59:09;7.85;;;4.57;;
75152;SDS011;63734;45.218;36.708;2023-03-01T16:01:39;11.82;;;5.20;;
75152;SDS011;63734;45.218;36.708;2023-03-01T16:04:06;8.57;;;4.45;;
75152;SDS011;63734;45.218;36.708;2023-03-01T16:06:32;7.75;;;4.20;;
75152;SDS011;63734;45.218;36.708;2023-03-01T16:08:59;7.72;;;4.10;;
75152;SDS011;63734;45.218;36.708;2023-03-01T16:11:25;6.47;;;3.85;;
75152;SDS011;63734;45.218;36.708;2023-03-01T16:13:51;8.57;;;4.15;;
75152;SDS011;63734;45.218;36.708;2023-03-01T16:16:17;10.73;;;3.90;;
75152;SDS011;63734;45.218;36.708;2023-03-01T16:18:43;11.05;;;3.92;;
75152;SDS011;63734;45.218;36.708;2023-03-01T16:21:12;6.72;;;4.00;;
75152;SDS011;63734;45.218;36.708;2023-03-01T16:23:42;8.52;;;4.00;;
75152;SDS011;63734;45.218;36.708;2023-03-01T16:26:09;10.95;;;4.40;;
75152;SDS011;63734;45.218;36.708;2023-03-01T16:28:36;7.55;;;4.13;;
75152;SDS011;63734;45.218;36.708;2023-03-01T16:31:02;6.90;;;4.22;;
75152;SDS011;63734;45.218;36.708;2023-03-01T16:33:29;6.97;;;3.83;;
75152;SDS011;63734;45.218;36.708;2023-03-01T16:35:55;4.75;;;3.38;;
75152;SDS011;63734;45.218;36.708;2023-03-01T16:38:21;8.45;;;4.00;;
75152;SDS011;63734;45.218;36.708;2023-03-01T16:40:48;8.38;;;4.60;;
75152;SDS011;63734;45.218;36.708;2023-03-01T16:43:16;7.60;;;4.18;;
75152;SDS011;63734;45.218;36.708;2023-03-01T16:45:42;7.28;;;3.47;;
75152;SDS011;63734;45.218;36.708;2023-03-01T16:48:10;9.73;;;4.95;;
75152;SDS011;63734;45.218;36.708;2023-03-01T16:50:37;7.07;;;4.28;;
75152;SDS011;63734;45.218;36.708;2023-03-01T16:53:03;5.53;;;3.67;;